• Join FlightAware (Why Join?)
  • Login
  • US Flag 
11:10AM EDT


 

Airport Tracker/Info


-or-


 

Live Flight TrackerFlight Track Log ✈ SWA1798 ✈ 04-May-2013 ✈ KDEN - KSTL

Flight Track Log - Related Links

Times and Time Zones

All times are in EDT time to prevent confusion due to time zone crossing. See the SWA1798 flight status page for this flight to view local times or setup timezone preferences in your user account.

Time Position Orientation Groundspeed Altitude Reporting Facility
EDT Latitude Longitude Course Direction KTS MPH feet Rate Location/Type
08:08PM 39.8667 -104.5667 91° East 187 215 7,700  Level Denver TRACON
08:09PM 39.8442 -104.4942 112° Southeast 228 262 9,700 1,680 Climbing Denver Center
08:10PM 39.8122 -104.3953 113° Southeast 297 342 11,400 2,580 Climbing Denver Center
08:11PM 39.7975 -104.2347 97° East 363 418 15,600 3,300 Climbing Denver Center
08:12PM 39.7822 -104.1003 98° East 382 440 18,200 2,640 Climbing Denver Center
08:13PM 39.8445 -103.7899 91° East  Level Estimated
08:13PM 39.7669 -103.9556 98° East 403 464 21,100  Level Denver Center
08:14PM 39.7483 -103.7947 99° East 421 484 23,800 2,220 Climbing Denver Center
08:15PM 39.7347 -103.6603 97° East 411 473 25,700 1,860 Climbing Denver Center
08:16PM 39.7219 -103.4975 96° East 441 507 27,600 1,680 Climbing Denver Center
08:17PM 39.7083 -103.3289 96° East 461 531 29,200 1,620 Climbing Denver Center
08:18PM 39.6925 -103.1244 96° East 482 555 31,000 1,260 Climbing Denver Center
08:19PM 39.6819 -103.0042 96° East 493 567 31,900 1,260 Climbing Denver Center
08:20PM 39.6669 -102.8222 96° East 502 578 33,700 2,220 Climbing Denver Center
08:21PM 39.6472 -102.5978 96° East 490 564 36,500 1,920 Climbing Denver Center
08:22PM 39.6303 -102.4072 97° East 480 552 37,700 900 Climbing Denver Center
08:23PM 39.6178 -102.2683 97° East 484 557 38,400 600 Climbing Denver Center
08:24PM 39.6003 -102.0742 97° East 487 560 39,000 240 Climbing Denver Center
08:25PM 39.5869 -101.9092 96° East 483 556 39,000  Level Denver Center
08:26PM 39.5708 -101.7144 96° East 487 560 39,000 -360 Level Denver Center
08:27PM 39.5542 -101.5228 96° East 481 554 38,300 -840 Descending Denver Center
08:28PM 39.5444 -101.3594 94° East 478 550 37,400 -480 Descending Denver Center
08:30PM 39.5418 -101.1694 91° East  Level FlightAware Approximate
08:30PM 39.5406 -101.0042 91° East 475 547 37,000  Level Denver Center
08:31PM 39.5375 -100.8375 91° East 484 557 37,000  Level Denver Center
08:32PM 39.5356 -100.6456 91° East 481 554 37,000  Level Denver Center
08:33PM 39.5322 -100.4806 91° East 481 554 37,000  Level Denver Center
08:34PM 39.5286 -100.2889 91° East 480 552 37,000  Level Denver Center
08:35PM 39.5256 -100.1272 91° East 474 545 37,000  Level Denver Center
08:37PM 39.5175 -99.7892 92° East 471 542 37,000  Level Kansas City Center
08:38PM 39.5125 -99.6211 92° East 469 540 37,000  Level Kansas City Center
08:39PM 39.5081 -99.4472 92° East 477 549 37,000  Level Kansas City Center
08:40PM 39.5039 -99.2781 92° East 474 545 37,000  Level Kansas City Center
08:41PM 39.5000 -99.1111 92° East 470 541 37,000  Level Kansas City Center
08:43PM 39.4933 -98.9119 92° East 470 541 37,000  Level Denver Center
08:44PM 39.4836 -98.6106 92° East 460 529 37,000  Level Kansas City Center
08:45PM 39.4781 -98.4464 92° East 459 528 37,000  Level Kansas City Center
08:46PM 39.4711 -98.2536 93° East 450 518 37,000  Level Kansas City Center
08:48PM 39.4642 -98.1022 93° East 443 510 37,000  Level Kansas City Center
08:49PM 39.4572 -97.9500 93° East 444 511 37,000  Level Kansas City Center
08:50PM 39.4528 -97.7808 92° East 435 501 37,000  Level Kansas City Center
08:51PM 39.4467 -97.6286 93° East 427 491 37,000  Level Kansas City Center
08:52PM 39.4386 -97.4847 94° East 423 487 37,000  Level Kansas City Center
08:53PM 39.4311 -97.3128 93° East 427 491 37,000  Level Kansas City Center
08:54PM 39.4236 -97.1647 94° East 430 495 37,000  Level Kansas City Center
08:55PM 39.4156 -96.9922 93° East 430 495 37,000  Level Kansas City Center
08:56PM 39.4092 -96.8442 93° East 431 496 37,000  Level Kansas City Center
08:57PM 39.4017 -96.6956 94° East 432 497 37,000  Level Kansas City Center
08:58PM 39.3922 -96.5206 94° East 435 501 37,000  Level Kansas City Center
08:59PM 39.3844 -96.3711 94° East 437 503 37,000  Level Kansas City Center
09:00PM 39.3756 -96.2147 94° East 440 506 37,000  Level Kansas City Center
09:01PM 39.3661 -96.0436 94° East 441 507 37,000  Level Kansas City Center
09:02PM 39.3575 -95.8953 94° East 434 499 37,000  Level Kansas City Center
09:03PM 39.3472 -95.7189 94° East 441 507 37,000  Level Kansas City Center
09:04PM 39.3386 -95.5706 94° East 434 499 37,000  Level Kansas City Center
09:05PM 39.3275 -95.4039 95° East 435 501 37,000  Level Kansas City Center
09:06PM 39.3178 -95.2506 95° East 432 497 37,000  Level Kansas City Center
09:07PM 39.3094 -95.0939 94° East 429 494 37,000  Level Kansas City Center
09:08PM 39.2989 -94.9453 95° East 429 494 37,000  Level Kansas City Center
09:09PM 39.2889 -94.7983 95° East 429 494 37,000  Level Kansas City Center
09:10PM 39.2531 -94.6322 106° East 435 501 37,000  Level Kansas City Center
09:11PM 39.2103 -94.4944 112° Southeast 433 498 37,000  Level Kansas City Center
09:12PM 39.1672 -94.3564 112° Southeast 433 498 37,000  Level Kansas City Center
09:13PM 39.1169 -94.1967 112° Southeast 429 494 37,000 -360 Level Kansas City Center
09:14PM 39.0833 -94.0581 107° East 420 483 36,300 -840 Descending Kansas City Center
09:15PM 39.0625 -93.9203 101° East 410 472 35,400 -1,140 Descending Kansas City Center
09:16PM 39.0372 -93.7658 102° East 396 456 34,000 -1,380 Descending Kansas City Center
09:17PM 39.0161 -93.6361 102° East 388 447 32,600 -1,260 Descending Kansas City Center
09:18PM 38.9919 -93.4808 101° East 393 452 31,500 -1,020 Descending Kansas City Center
09:19PM 38.9678 -93.3417 103° East 395 455 30,600 -960 Descending Kansas City Center
09:20PM 38.9436 -93.1983 102° East 404 465 29,600 -1,020 Descending Kansas City Center
09:21PM 38.9217 -93.0583 101° East 402 463 28,600 -1,080 Descending Kansas City Center
09:22PM 38.8983 -92.9206 102° East 397 457 27,500 -1,080 Descending Kansas City Center
09:23PM 38.8756 -92.7864 102° East 389 448 26,500 -1,020 Descending Kansas City Center
09:24PM 38.8519 -92.6547 103° East 382 440 25,500 -1,020 Descending Kansas City Center
09:25PM 38.8303 -92.5250 102° East 375 432 24,500 -780 Descending Kansas City Center
09:26PM 38.8083 -92.3986 103° East 367 422 24,000 -300 Descending Kansas City Center
09:27PM 38.7861 -92.2747 103° East 361 415 24,000  Level Kansas City Center
09:28PM 38.7644 -92.1508 103° East 357 411 24,000  Level Kansas City Center
09:29PM 38.7422 -92.0264 103° East 357 411 24,000  Level Kansas City Center
09:30PM 38.7206 -91.9058 103° East 352 405 24,000 -840 Level Kansas City Center
09:31PM 38.7000 -91.7900 103° East 339 390 22,400 -1,740 Descending Kansas City Center
09:32PM 38.6894 -91.6806 97° East 318 366 20,500 -1,920 Descending Kansas City Center
09:33PM 38.6917 -91.5733 88° East 303 349 18,600 -1,920 Descending Kansas City Center
09:34PM 38.6925 -91.4678 89° East 298 343 16,700 -2,040 Descending Kansas City Center
09:35PM 38.6933 -91.3472 89° East 299 344 14,500 -1,980 Descending Kansas City Center
09:36PM 38.6936 -91.2428 90° East 296 341 12,700 -1,740 Descending Kansas City Center
09:37PM 38.6953 -91.1436 89° East 285 328 11,000 -1,320 Descending Kansas City Center
09:38PM 38.7183 -91.0547 72° East 273 314 10,100 -1,200 Descending Kansas City Center
09:39PM 38.7525 -90.9750 61° Northeast 258 297 8,700 -1,380 Descending Kansas City Center
09:40PM 38.7878 -90.9000 59° Northeast 249 287 7,400 -1,200 Descending Kansas City Center
09:41PM 38.8167 -90.8217 65° Northeast 245 282 6,300 -1,200 Descending Kansas City Center
09:42PM 38.8197 -90.7367 87° East 240 276 5,000 -1,020 Descending Kansas City Center
09:43PM 38.8247 -90.6517 86° East 240 276 4,300 -780 Descending Kansas City Center
09:45PM 38.8283 -90.5703 87° East 233 268 3,500 -660 Descending Kansas City Center
09:46PM 38.8181 -90.5011 101° East 220 253 3,000 -720 Descending Kansas City Center
09:47PM 38.7906 -90.4461 123° Southeast 197 227 2,100 -900 Descending Kansas City Center
09:48PM 38.7706 -90.4053 122° Southeast 162 186 1,300 -780 Descending Kansas City Center
09:49PM 38.7514 -90.3658 122° Southeast 140 161 600 -720 Descending Kansas City Center